sensor_id;sensor_type;location;lat;lon;timestamp;P1;P2;P0
34240;PMS7003;20503;50.200;19.508;2023-04-21T00:01:30;9;8;6
34240;PMS7003;20503;50.200;19.508;2023-04-21T00:06:38;12;11;8
34240;PMS7003;20503;50.200;19.508;2023-04-21T00:11:45;11;8;7
34240;PMS7003;20503;50.200;19.508;2023-04-21T00:16:53;18;12;9
34240;PMS7003;20503;50.200;19.508;2023-04-21T00:22:00;18;9;6
34240;PMS7003;20503;50.200;19.508;2023-04-21T00:27:08;11;10;7
34240;PMS7003;20503;50.200;19.508;2023-04-21T00:32:15;23;17;13
34240;PMS7003;20503;50.200;19.508;2023-04-21T00:37:23;19;13;10
34240;PMS7003;20503;50.200;19.508;2023-04-21T00:42:30;16;13;9
34240;PMS7003;20503;50.200;19.508;2023-04-21T00:47:38;14;11;9
34240;PMS7003;20503;50.200;19.508;2023-04-21T00:52:45;15;14;9
34240;PMS7003;20503;50.200;19.508;2023-04-21T00:57:52;22;17;11
34240;PMS7003;20503;50.200;19.508;2023-04-21T01:03:01;18;16;11
34240;PMS7003;20503;50.200;19.508;2023-04-21T01:08:08;19;16;10
34240;PMS7003;20503;50.200;19.508;2023-04-21T01:13:18;12;12;9
34240;PMS7003;20503;50.200;19.508;2023-04-21T01:18:24;24;16;10
34240;PMS7003;20503;50.200;19.508;2023-04-21T01:23:31;21;15;12
34240;PMS7003;20503;50.200;19.508;2023-04-21T01:28:39;18;16;10
34240;PMS7003;20503;50.200;19.508;2023-04-21T01:33:46;20;16;8
34240;PMS7003;20503;50.200;19.508;2023-04-21T01:38:54;17;15;10
34240;PMS7003;20503;50.200;19.508;2023-04-21T01:44:02;21;18;10
34240;PMS7003;20503;50.200;19.508;2023-04-21T01:49:10;19;16;12
34240;PMS7003;20503;50.200;19.508;2023-04-21T01:54:17;16;14;9
34240;PMS7003;20503;50.200;19.508;2023-04-21T01:59:25;17;16;12
34240;PMS7003;20503;50.200;19.508;2023-04-21T02:04:33;21;17;10
34240;PMS7003;20503;50.200;19.508;2023-04-21T02:09:40;20;14;12
34240;PMS7003;20503;50.200;19.508;2023-04-21T02:14:48;14;13;10
34240;PMS7003;20503;50.200;19.508;2023-04-21T02:19:55;13;11;9
34240;PMS7003;20503;50.200;19.508;2023-04-21T02:25:03;20;15;11
34240;PMS7003;20503;50.200;19.508;2023-04-21T02:30:11;16;10;9
34240;PMS7003;20503;50.200;19.508;2023-04-21T02:35:19;12;9;8
34240;PMS7003;20503;50.200;19.508;2023-04-21T02:40:26;14;11;8
34240;PMS7003;20503;50.200;19.508;2023-04-21T02:45:35;13;12;8
34240;PMS7003;20503;50.200;19.508;2023-04-21T02:50:42;14;12;8
34240;PMS7003;20503;50.200;19.508;2023-04-21T02:55:50;15;13;10
34240;PMS7003;20503;50.200;19.508;2023-04-21T03:00:57;25;20;13
34240;PMS7003;20503;50.200;19.508;2023-04-21T03:06:05;33;25;16
34240;PMS7003;20503;50.200;19.508;2023-04-21T03:11:12;29;24;15
34240;PMS7003;20503;50.200;19.508;2023-04-21T03:16:20;22;15;10
34240;PMS7003;20503;50.200;19.508;2023-04-21T03:21:28;22;16;10
34240;PMS7003;20503;50.200;19.508;2023-04-21T03:26:36;14;14;10
34240;PMS7003;20503;50.200;19.508;2023-04-21T03:31:43;19;15;12
34240;PMS7003;20503;50.200;19.508;2023-04-21T03:36:50;22;18;13
34240;PMS7003;20503;50.200;19.508;2023-04-21T03:41:58;27;21;13
34240;PMS7003;20503;50.200;19.508;2023-04-21T03:47:06;21;18;13
34240;PMS7003;20503;50.200;19.508;2023-04-21T03:52:14;19;18;12
34240;PMS7003;20503;50.200;19.508;2023-04-21T03:57:22;19;16;12
34240;PMS7003;20503;50.200;19.508;2023-04-21T04:02:29;21;17;12
34240;PMS7003;20503;50.200;19.508;2023-04-21T04:07:37;16;15;10
34240;PMS7003;20503;50.200;19.508;2023-04-21T04:12:45;75;65;47
34240;PMS7003;20503;50.200;19.508;2023-04-21T04:17:52;28;24;16
34240;PMS7003;20503;50.200;19.508;2023-04-21T04:23:01;14;13;8
34240;PMS7003;20503;50.200;19.508;2023-04-21T04:28:07;17;13;9
34240;PMS7003;20503;50.200;19.508;2023-04-21T04:33:16;13;10;8
34240;PMS7003;20503;50.200;19.508;2023-04-21T04:38:24;13;13;9
34240;PMS7003;20503;50.200;19.508;2023-04-21T04:43:32;12;10;8
34240;PMS7003;20503;50.200;19.508;2023-04-21T04:48:41;19;16;10
34240;PMS7003;20503;50.200;19.508;2023-04-21T04:53:49;17;14;10
34240;PMS7003;20503;50.200;19.508;2023-04-21T04:58:57;20;18;11
34240;PMS7003;20503;50.200;19.508;2023-04-21T05:04:04;16;13;9
34240;PMS7003;20503;50.200;19.508;2023-04-21T05:09:12;31;25;17
34240;PMS7003;20503;50.200;19.508;2023-04-21T05:14:20;34;28;19
34240;PMS7003;20503;50.200;19.508;2023-04-21T05:19:27;35;29;20
34240;PMS7003;20503;50.200;19.508;2023-04-21T05:24:36;38;32;21
34240;PMS7003;20503;50.200;19.508;2023-04-21T05:29:43;44;35;24
34240;PMS7003;20503;50.200;19.508;2023-04-21T05:34:51;53;41;28
34240;PMS7003;20503;50.200;19.508;2023-04-21T05:39:59;48;38;25
34240;PMS7003;20503;50.200;19.508;2023-04-21T05:45:07;46;36;25
34240;PMS7003;20503;50.200;19.508;2023-04-21T05:50:15;47;36;24
34240;PMS7003;20503;50.200;19.508;2023-04-21T05:55:22;29;21;17
34240;PMS7003;20503;50.200;19.508;2023-04-21T06:00:30;12;12;10
34240;PMS7003;20503;50.200;19.508;2023-04-21T06:05:37;17;12;10
34240;PMS7003;20503;50.200;19.508;2023-04-21T06:10:45;13;12;8
34240;PMS7003;20503;50.200;19.508;2023-04-21T06:15:53;12;10;8
34240;PMS7003;20503;50.200;19.508;2023-04-21T06:21:00;10;10;7
34240;PMS7003;20503;50.200;19.508;2023-04-21T06:26:07;15;12;8
34240;PMS7003;20503;50.200;19.508;2023-04-21T06:31:15;11;10;7
34240;PMS7003;20503;50.200;19.508;2023-04-21T06:36:23;10;10;8
34240;PMS7003;20503;50.200;19.508;2023-04-21T06:41:30;9;8;6
34240;PMS7003;20503;50.200;19.508;2023-04-21T06:46:37;9;8;6
34240;PMS7003;20503;50.200;19.508;2023-04-21T06:51:45;9;8;7
34240;PMS7003;20503;50.200;19.508;2023-04-21T06:56:53;8;8;7
34240;PMS7003;20503;50.200;19.508;2023-04-21T07:02:01;11;10;8
34240;PMS7003;20503;50.200;19.508;2023-04-21T07:07:09;9;8;6
34240;PMS7003;20503;50.200;19.508;2023-04-21T07:12:17;9;8;7
34240;PMS7003;20503;50.200;19.508;2023-04-21T07:17:25;8;8;6
34240;PMS7003;20503;50.200;19.508;2023-04-21T07:22:33;10;8;6
34240;PMS7003;20503;50.200;19.508;2023-04-21T07:27:42;9;8;6
34240;PMS7003;20503;50.200;19.508;2023-04-21T07:32:49;7;7;6
34240;PMS7003;20503;50.200;19.508;2023-04-21T07:37:57;11;9;7
34240;PMS7003;20503;50.200;19.508;2023-04-21T07:43:05;11;9;8
34240;PMS7003;20503;50.200;19.508;2023-04-21T07:48:14;9;9;7
34240;PMS7003;20503;50.200;19.508;2023-04-21T07:53:20;16;14;10
34240;PMS7003;20503;50.200;19.508;2023-04-21T07:58:29;12;10;8
34240;PMS7003;20503;50.200;19.508;2023-04-21T08:03:38;11;9;8
34240;PMS7003;20503;50.200;19.508;2023-04-21T08:08:45;16;13;11
34240;PMS7003;20503;50.200;19.508;2023-04-21T08:13:53;10;8;7
34240;PMS7003;20503;50.200;19.508;2023-04-21T08:19:01;10;10;8
34240;PMS7003;20503;50.200;19.508;2023-04-21T08:24:09;10;10;8
34240;PMS7003;20503;50.200;19.508;2023-04-21T08:29:16;14;12;10
34240;PMS7003;20503;50.200;19.508;2023-04-21T08:34:25;11;11;8
34240;PMS7003;20503;50.200;19.508;2023-04-21T08:39:32;15;9;6
34240;PMS7003;20503;50.200;19.508;2023-04-21T08:44:40;10;10;8
34240;PMS7003;20503;50.200;19.508;2023-04-21T08:49:48;17;15;12
34240;PMS7003;20503;50.200;19.508;2023-04-21T08:54:55;13;12;10
34240;PMS7003;20503;50.200;19.508;2023-04-21T09:00:04;15;12;9
34240;PMS7003;20503;50.200;19.508;2023-04-21T09:05:11;11;11;8
34240;PMS7003;20503;50.200;19.508;2023-04-21T09:10:22;12;12;9
34240;PMS7003;20503;50.200;19.508;2023-04-21T09:15:26;12;12;10
34240;PMS7003;20503;50.200;19.508;2023-04-21T09:20:34;14;11;9
34240;PMS7003;20503;50.200;19.508;2023-04-21T09:25:42;13;12;10
34240;PMS7003;20503;50.200;19.508;2023-04-21T09:30:49;14;11;8
34240;PMS7003;20503;50.200;19.508;2023-04-21T09:35:59;13;12;10
34240;PMS7003;20503;50.200;19.508;2023-04-21T09:41:06;16;12;8
34240;PMS7003;20503;50.200;19.508;2023-04-21T09:46:16;13;12;10
34240;PMS7003;20503;50.200;19.508;2023-04-21T09:51:20;17;12;10
34240;PMS7003;20503;50.200;19.508;2023-04-21T09:56:29;14;12;9
34240;PMS7003;20503;50.200;19.508;2023-04-21T10:01:36;12;11;9
34240;PMS7003;20503;50.200;19.508;2023-04-21T10:06:44;14;12;10
34240;PMS7003;20503;50.200;19.508;2023-04-21T10:11:51;15;13;11
34240;PMS7003;20503;50.200;19.508;2023-04-21T10:22:08;12;12;9
34240;PMS7003;20503;50.200;19.508;2023-04-21T10:27:13;15;12;10
34240;PMS7003;20503;50.200;19.508;2023-04-21T10:37:37;15;13;11
34240;PMS7003;20503;50.200;19.508;2023-04-21T10:42:44;14;12;10
34240;PMS7003;20503;50.200;19.508;2023-04-21T10:47:46;15;12;10
34240;PMS7003;20503;50.200;19.508;2023-04-21T10:52:55;13;12;9
34240;PMS7003;20503;50.200;19.508;2023-04-21T10:58:05;11;10;8
34240;PMS7003;20503;50.200;19.508;2023-04-21T11:03:10;12;11;9
34240;PMS7003;20503;50.200;19.508;2023-04-21T11:08:14;9;8;7
34240;PMS7003;20503;50.200;19.508;2023-04-21T11:13:25;10;8;6
34240;PMS7003;20503;50.200;19.508;2023-04-21T11:18:38;13;12;9
34240;PMS7003;20503;50.200;19.508;2023-04-21T11:23:46;12;11;9
34240;PMS7003;20503;50.200;19.508;2023-04-21T11:28:49;14;10;7
34240;PMS7003;20503;50.200;19.508;2023-04-21T11:33:54;16;12;9
34240;PMS7003;20503;50.200;19.508;2023-04-21T11:39:19;12;11;8
34240;PMS7003;20503;50.200;19.508;2023-04-21T11:44:12;16;11;8
34240;PMS7003;20503;50.200;19.508;2023-04-21T11:49:16;14;12;8
34240;PMS7003;20503;50.200;19.508;2023-04-21T11:54:24;13;12;9
34240;PMS7003;20503;50.200;19.508;2023-04-21T11:59:32;11;11;8
34240;PMS7003;20503;50.200;19.508;2023-04-21T12:04:39;10;10;9
34240;PMS7003;20503;50.200;19.508;2023-04-21T12:09:51;13;11;8
34240;PMS7003;20503;50.200;19.508;2023-04-21T12:14:55;11;10;9
34240;PMS7003;20503;50.200;19.508;2023-04-21T12:20:03;8;8;6
34240;PMS7003;20503;50.200;19.508;2023-04-21T12:25:10;12;10;8
34240;PMS7003;20503;50.200;19.508;2023-04-21T12:30:18;12;11;9
34240;PMS7003;20503;50.200;19.508;2023-04-21T12:35:26;11;9;9
34240;PMS7003;20503;50.200;19.508;2023-04-21T12:40:34;10;9;7
34240;PMS7003;20503;50.200;19.508;2023-04-21T12:45:41;12;9;8
34240;PMS7003;20503;50.200;19.508;2023-04-21T12:50:49;10;10;8
34240;PMS7003;20503;50.200;19.508;2023-04-21T12:55:56;12;8;7
34240;PMS7003;20503;50.200;19.508;2023-04-21T13:01:04;9;8;6
34240;PMS7003;20503;50.200;19.508;2023-04-21T13:06:12;8;6;6
34240;PMS7003;20503;50.200;19.508;2023-04-21T13:11:20;6;6;5
34240;PMS7003;20503;50.200;19.508;2023-04-21T13:16:27;7;6;5
34240;PMS7003;20503;50.200;19.508;2023-04-21T13:21:35;10;9;7
34240;PMS7003;20503;50.200;19.508;2023-04-21T13:26:44;8;8;5
34240;PMS7003;20503;50.200;19.508;2023-04-21T13:31:51;7;7;5
34240;PMS7003;20503;50.200;19.508;2023-04-21T13:37:02;4;4;3
34240;PMS7003;20503;50.200;19.508;2023-04-21T13:42:07;5;5;4
34240;PMS7003;20503;50.200;19.508;2023-04-21T13:47:14;6;6;5
34240;PMS7003;20503;50.200;19.508;2023-04-21T13:52:22;6;6;4
34240;PMS7003;20503;50.200;19.508;2023-04-21T13:57:30;11;7;5
34240;PMS7003;20503;50.200;19.508;2023-04-21T14:02:38;7;7;5
34240;PMS7003;20503;50.200;19.508;2023-04-21T14:07:45;6;6;4
34240;PMS7003;20503;50.200;19.508;2023-04-21T14:12:53;6;5;5
34240;PMS7003;20503;50.200;19.508;2023-04-21T14:18:00;9;6;5
34240;PMS7003;20503;50.200;19.508;2023-04-21T14:23:08;6;6;5
34240;PMS7003;20503;50.200;19.508;2023-04-21T14:28:16;6;6;5
34240;PMS7003;20503;50.200;19.508;2023-04-21T14:33:24;5;5;5
34240;PMS7003;20503;50.200;19.508;2023-04-21T14:38:32;7;5;5
34240;PMS7003;20503;50.200;19.508;2023-04-21T14:43:39;12;6;4
34240;PMS7003;20503;50.200;19.508;2023-04-21T14:48:47;48;33;22
34240;PMS7003;20503;50.200;19.508;2023-04-21T14:53:55;21;17;11
34240;PMS7003;20503;50.200;19.508;2023-04-21T14:59:02;9;9;7
34240;PMS7003;20503;50.200;19.508;2023-04-21T15:04:10;25;21;15
34240;PMS7003;20503;50.200;19.508;2023-04-21T15:09:18;21;12;10
34240;PMS7003;20503;50.200;19.508;2023-04-21T15:14:25;7;7;5
34240;PMS7003;20503;50.200;19.508;2023-04-21T15:19:33;9;7;6
34240;PMS7003;20503;50.200;19.508;2023-04-21T15:24:41;8;7;5
34240;PMS7003;20503;50.200;19.508;2023-04-21T15:29:48;8;7;6
34240;PMS7003;20503;50.200;19.508;2023-04-21T15:34:57;11;8;6
34240;PMS7003;20503;50.200;19.508;2023-04-21T15:40:05;13;11;8
34240;PMS7003;20503;50.200;19.508;2023-04-21T15:45:12;17;14;9
34240;PMS7003;20503;50.200;19.508;2023-04-21T15:50:20;15;13;10
34240;PMS7003;20503;50.200;19.508;2023-04-21T15:55:28;11;11;8
34240;PMS7003;20503;50.200;19.508;2023-04-21T16:00:35;11;11;8
34240;PMS7003;20503;50.200;19.508;2023-04-21T16:05:42;10;8;6
34240;PMS7003;20503;50.200;19.508;2023-04-21T16:10:50;33;25;15
34240;PMS7003;20503;50.200;19.508;2023-04-21T16:15:57;20;18;13
34240;PMS7003;20503;50.200;19.508;2023-04-21T16:21:05;13;9;7
34240;PMS7003;20503;50.200;19.508;2023-04-21T16:26:14;17;14;9
34240;PMS7003;20503;50.200;19.508;2023-04-21T16:31:20;13;10;7
34240;PMS7003;20503;50.200;19.508;2023-04-21T16:36:29;25;20;13
34240;PMS7003;20503;50.200;19.508;2023-04-21T16:41:37;15;12;9
34240;PMS7003;20503;50.200;19.508;2023-04-21T16:46:45;11;8;6
34240;PMS7003;20503;50.200;19.508;2023-04-21T16:55:43;10;9;6
34240;PMS7003;20503;50.200;19.508;2023-04-21T17:00:51;14;9;6
34240;PMS7003;20503;50.200;19.508;2023-04-21T17:05:58;8;7;6
34240;PMS7003;20503;50.200;19.508;2023-04-21T17:11:06;8;7;5
34240;PMS7003;20503;50.200;19.508;2023-04-21T17:16:13;13;10;6
34240;PMS7003;20503;50.200;19.508;2023-04-21T17:21:21;9;9;7
34240;PMS7003;20503;50.200;19.508;2023-04-21T17:26:29;20;15;6
34240;PMS7003;20503;50.200;19.508;2023-04-21T17:31:37;17;13;9
34240;PMS7003;20503;50.200;19.508;2023-04-21T17:36:44;16;11;7
34240;PMS7003;20503;50.200;19.508;2023-04-21T17:41:52;15;12;8
34240;PMS7003;20503;50.200;19.508;2023-04-21T17:46:59;13;12;8
34240;PMS7003;20503;50.200;19.508;2023-04-21T17:52:08;11;10;6
34240;PMS7003;20503;50.200;19.508;2023-04-21T17:57:15;14;11;8
34240;PMS7003;20503;50.200;19.508;2023-04-21T18:02:23;15;12;9
34240;PMS7003;20503;50.200;19.508;2023-04-21T18:07:31;18;15;11
34240;PMS7003;20503;50.200;19.508;2023-04-21T18:12:39;22;19;12
34240;PMS7003;20503;50.200;19.508;2023-04-21T18:17:47;25;21;13
34240;PMS7003;20503;50.200;19.508;2023-04-21T18:22:55;37;26;17
34240;PMS7003;20503;50.200;19.508;2023-04-21T18:28:03;38;30;18
34240;PMS7003;20503;50.200;19.508;2023-04-21T18:33:11;43;34;20
34240;PMS7003;20503;50.200;19.508;2023-04-21T18:38:19;36;28;16
34240;PMS7003;20503;50.200;19.508;2023-04-21T18:43:27;50;33;21
34240;PMS7003;20503;50.200;19.508;2023-04-21T18:48:35;46;36;22
34240;PMS7003;20503;50.200;19.508;2023-04-21T18:53:43;52;40;21
34240;PMS7003;20503;50.200;19.508;2023-04-21T18:58:51;53;40;23
34240;PMS7003;20503;50.200;19.508;2023-04-21T19:03:59;54;37;22
34240;PMS7003;20503;50.200;19.508;2023-04-21T19:09:07;49;34;21
34240;PMS7003;20503;50.200;19.508;2023-04-21T19:14:15;45;31;18
34240;PMS7003;20503;50.200;19.508;2023-04-21T19:19:22;53;35;22
34240;PMS7003;20503;50.200;19.508;2023-04-21T19:24:30;58;42;25
34240;PMS7003;20503;50.200;19.508;2023-04-21T19:29:39;46;35;21
34240;PMS7003;20503;50.200;19.508;2023-04-21T19:34:46;40;32;20
34240;PMS7003;20503;50.200;19.508;2023-04-21T19:39:54;47;33;20
34240;PMS7003;20503;50.200;19.508;2023-04-21T19:45:01;44;32;20
34240;PMS7003;20503;50.200;19.508;2023-04-21T19:50:09;25;18;12
34240;PMS7003;20503;50.200;19.508;2023-04-21T19:55:17;17;15;11
34240;PMS7003;20503;50.200;19.508;2023-04-21T20:00:25;16;14;10
34240;PMS7003;20503;50.200;19.508;2023-04-21T20:05:32;14;14;9
34240;PMS7003;20503;50.200;19.508;2023-04-21T20:10:41;17;12;9
34240;PMS7003;20503;50.200;19.508;2023-04-21T20:15:49;10;9;6
34240;PMS7003;20503;50.200;19.508;2023-04-21T20:20:57;15;12;9
34240;PMS7003;20503;50.200;19.508;2023-04-21T20:26:05;14;12;9
34240;PMS7003;20503;50.200;19.508;2023-04-21T20:31:13;9;8;5
34240;PMS7003;20503;50.200;19.508;2023-04-21T20:36:21;9;5;4
34240;PMS7003;20503;50.200;19.508;2023-04-21T20:41:29;8;7;5
34240;PMS7003;20503;50.200;19.508;2023-04-21T20:46:37;11;9;6
34240;PMS7003;20503;50.200;19.508;2023-04-21T20:51:44;13;10;9
34240;PMS7003;20503;50.200;19.508;2023-04-21T20:56:53;17;15;8
34240;PMS7003;20503;50.200;19.508;2023-04-21T21:02:00;21;19;10
34240;PMS7003;20503;50.200;19.508;2023-04-21T21:07:08;15;10;7
34240;PMS7003;20503;50.200;19.508;2023-04-21T21:12:16;16;12;10
34240;PMS7003;20503;50.200;19.508;2023-04-21T21:17:23;11;11;7
34240;PMS7003;20503;50.200;19.508;2023-04-21T21:22:32;8;8;7
34240;PMS7003;20503;50.200;19.508;2023-04-21T21:27:39;17;12;9
34240;PMS7003;20503;50.200;19.508;2023-04-21T21:32:47;12;9;6
34240;PMS7003;20503;50.200;19.508;2023-04-21T21:37:54;14;10;6
34240;PMS7003;20503;50.200;19.508;2023-04-21T21:43:02;9;7;6
34240;PMS7003;20503;50.200;19.508;2023-04-21T21:48:10;13;9;5
34240;PMS7003;20503;50.200;19.508;2023-04-21T21:53:18;12;9;5
34240;PMS7003;20503;50.200;19.508;2023-04-21T21:58:25;13;8;5
34240;PMS7003;20503;50.200;19.508;2023-04-21T22:03:34;10;9;6
34240;PMS7003;20503;50.200;19.508;2023-04-21T22:08:41;12;8;7
34240;PMS7003;20503;50.200;19.508;2023-04-21T22:13:49;9;6;4
34240;PMS7003;20503;50.200;19.508;2023-04-21T22:18:56;14;9;6
34240;PMS7003;20503;50.200;19.508;2023-04-21T22:24:03;10;8;6
34240;PMS7003;20503;50.200;19.508;2023-04-21T22:29:10;12;8;8
34240;PMS7003;20503;50.200;19.508;2023-04-21T22:34:18;12;11;7
34240;PMS7003;20503;50.200;19.508;2023-04-21T22:39:26;11;8;6
34240;PMS7003;20503;50.200;19.508;2023-04-21T22:44:34;11;6;5
34240;PMS7003;20503;50.200;19.508;2023-04-21T22:49:41;12;8;6
34240;PMS7003;20503;50.200;19.508;2023-04-21T22:54:49;10;8;5
34240;PMS7003;20503;50.200;19.508;2023-04-21T22:59:56;14;8;6
34240;PMS7003;20503;50.200;19.508;2023-04-21T23:05:04;9;8;6
34240;PMS7003;20503;50.200;19.508;2023-04-21T23:10:12;9;7;6
34240;PMS7003;20503;50.200;19.508;2023-04-21T23:15:19;8;8;7
34240;PMS7003;20503;50.200;19.508;2023-04-21T23:20:27;15;10;6
34240;PMS7003;20503;50.200;19.508;2023-04-21T23:25:35;19;10;7
34240;PMS7003;20503;50.200;19.508;2023-04-21T23:30:42;10;9;7
34240;PMS7003;20503;50.200;19.508;2023-04-21T23:35:49;9;8;5
34240;PMS7003;20503;50.200;19.508;2023-04-21T23:40:57;14;10;7
34240;PMS7003;20503;50.200;19.508;2023-04-21T23:46:05;13;9;6
34240;PMS7003;20503;50.200;19.508;2023-04-21T23:51:13;11;10;7
34240;PMS7003;20503;50.200;19.508;2023-04-21T23:56:22;9;8;7
